23kousinmaru — JD2248 — position and weather

sailwx.info

Track history (hours):
 
Tides and Currents Weather Stations Pressure Air Temp Water Temp Dewpoint Dewpoint Depression Visibility Wind Speed Wind Dir Waves Ship Positions

23kousinmaru

Last reported at 2018-Apr-25 11:06 UTC. Time now 2018-Apr-26 03:31 UTC.
Position N 34°25' E 134°12'.

Length 68 m; draft 4.5 m.

Type: Tanker. MMSI: 431501853.

Date/timePositionNaut miles runAvg speedWind from/ knotsBaromVisibWave heightAir tempDewpointWater temp
2018-Apr-25 11:06N 34°25' E 134°12'611.6
2018-Apr-25 10:36N 34°24' E 134°19'111.7
2018-Apr-25 10:29N 34°24' E 134°20'611.7
2018-Apr-25 10:00N 34°21' E 134°26'611.7
2018-Apr-25 09:30N 34°18' E 134°32'611.9
2018-Apr-25 09:00N 34°15' E 134°39'612.1
2018-Apr-25 08:29N 34°10' E 134°44'611.5
2018-Apr-25 08:00N 34°08' E 134°50'612.1
2018-Apr-25 07:30N 34°08' E 134°57'612.1
2018-Apr-25 06:59N 34°08' E 135°04'3 0.4
2018-Apr-25 00:10N 34°07' E 135°08'0 0.8
2018-Apr-24 23:55N 34°07' E 135°08'0 1.1
2018-Apr-24 23:30N 34°07' E 135°07'510.1
2018-Apr-24 23:00N 34°03' E 135°04'611.2
2018-Apr-24 22:30N 33°58' E 135°02'611.0
2018-Apr-24 21:57N 33°52' E 135°03'610.1
2018-Apr-24 21:23N 33°47' E 135°07'100 7.5
2018-Apr-24 07:54N 34°42' E 136°49'511.8
2018-Apr-24 07:30N 34°46' E 136°46'611.9
2018-Apr-24 07:01N 34°52' E 136°43'611.6
2018-Apr-24 06:30N 34°57' E 136°40'1 2.3
2018-Apr-24 06:00N 34°57' E 136°38'0 0.0
2018-Apr-24 05:31N 34°57' E 136°38'0 0.0
2018-Apr-24 05:01N 34°57' E 136°38'0 0.0
2018-Apr-24 04:30N 34°57' E 136°38'0 0.0
2018-Apr-24 04:01N 34°57' E 136°38'0 0.0
2018-Apr-24 03:30N 34°57' E 136°38'0 0.0
2018-Apr-24 03:00N 34°57' E 136°38'0 0.0
2018-Apr-24 02:30N 34°57' E 136°38'0 0.0
2018-Apr-24 02:00N 34°57' E 136°38'0 0.0
2018-Apr-24 01:30N 34°57' E 136°38'0 0.0
2018-Apr-24 01:00N 34°57' E 136°38'0 0.0
2018-Apr-24 00:30N 34°57' E 136°38'0 0.0
2018-Apr-24 00:00N 34°57' E 136°38'0 0.0
2018-Apr-23 23:31N 34°57' E 136°38'2 3.6
2018-Apr-23 23:01N 34°57' E 136°41'1 1.0
2018-Apr-23 22:30N 34°57' E 136°41'0 0.0
2018-Apr-23 22:00N 34°57' E 136°41'0 0.0
2018-Apr-23 21:27N 34°57' E 136°41'0 0.0
2018-Apr-23 21:00N 34°57' E 136°41'0 1.0
2018-Apr-23 20:30N 34°57' E 136°41'611.8
2018-Apr-23 20:00N 34°51' E 136°43'612.5
2018-Apr-23 19:30N 34°46' E 136°47'7111.7
2018-Apr-23 13:26N 34°33' E 138°11'612.9
2018-Apr-23 12:59N 34°33' E 138°18'712.5
2018-Apr-23 12:27N 34°34' E 138°26'612.4
2018-Apr-23 12:00N 34°34' E 138°33'612.2
2018-Apr-23 11:29N 34°34' E 138°41'611.8
2018-Apr-23 10:56N 34°35' E 138°49'510.8
2018-Apr-23 10:29N 34°36' E 138°54'711.4
2018-Apr-23 09:50N 34°40' E 139°01'812.6
2018-Apr-23 09:14N 34°47' E 139°06'312.8
2018-Apr-23 08:58N 34°50' E 139°08'712.6
2018-Apr-23 08:24N 34°56' E 139°13'512.0
2018-Apr-23 08:00N 34°58' E 139°18'511.1
2018-Apr-23 07:30N 35°00' E 139°24'612.6
2018-Apr-23 07:00N 35°03' E 139°31'712.6
2018-Apr-23 06:28N 35°06' E 139°39'612.1
2018-Apr-23 06:00N 35°10' E 139°44'612.8
2018-Apr-23 05:30N 35°16' E 139°46'612.6
2018-Apr-23 05:00N 35°21' E 139°42'612.2
2018-Apr-23 04:30N 35°27' E 139°45'4 7.3
2018-Apr-23 04:00N 35°30' E 139°45'0 0.7
2018-Apr-23 03:30N 35°30' E 139°45'0 0.0
2018-Apr-23 03:00N 35°30' E 139°45'0 0.0
2018-Apr-23 02:30N 35°30' E 139°45'0 0.0
2018-Apr-23 02:00N 35°30' E 139°45'0 0.0
2018-Apr-23 01:30N 35°30' E 139°45'0 0.0
2018-Apr-23 01:00N 35°30' E 139°45'0 0.0
2018-Apr-23 00:30N 35°30' E 139°45'0 0.0
2018-Apr-23 00:00N 35°30' E 139°45'0 0.0
2018-Apr-22 23:30N 35°30' E 139°45'0 0.0
2018-Apr-22 23:00N 35°30' E 139°45'1 2.0
2018-Apr-22 22:30N 35°30' E 139°46'611.8
2018-Apr-22 22:00N 35°29' E 139°53'1 0.1
2018-Apr-22 17:14N 35°29' E 139°54'0 0.0
2018-Apr-22 16:40N 35°29' E 139°54'0 0.0
2018-Apr-22 16:30N 35°29' E 139°54'0 0.1
2018-Apr-22 16:00N 35°29' E 139°54'0 0.0
2018-Apr-22 15:30N 35°29' E 139°54'0 0.0
2018-Apr-22 15:00N 35°29' E 139°54'0 0.0
2018-Apr-22 14:30N 35°29' E 139°54'0 0.0
2018-Apr-22 14:00N 35°29' E 139°54'0 0.0
2018-Apr-22 13:30N 35°29' E 139°54'0 0.0
2018-Apr-22 13:00N 35°29' E 139°54'0 0.0
2018-Apr-22 12:30N 35°29' E 139°54'0 0.0
2018-Apr-22 12:00N 35°29' E 139°54'0 0.0
2018-Apr-22 11:29N 35°29' E 139°54'0 0.0
2018-Apr-22 11:00N 35°29' E 139°54'0 0.0
2018-Apr-22 10:30N 35°29' E 139°54'0 0.1
2018-Apr-22 10:00N 35°29' E 139°54'0 0.0
2018-Apr-22 09:30N 35°29' E 139°54'0 0.0
2018-Apr-22 09:00N 35°29' E 139°54'0 0.0
2018-Apr-22 08:30N 35°29' E 139°54'0 0.0
2018-Apr-22 07:58N 35°29' E 139°54'0 0.0
2018-Apr-22 07:28N 35°29' E 139°54'0 0.0
2018-Apr-22 06:58N 35°29' E 139°54'0 0.0
2018-Apr-22 06:29N 35°29' E 139°54'0 0.0
2018-Apr-22 06:00N 35°29' E 139°54'0 0.0
2018-Apr-22 05:30N 35°29' E 139°54'0 0.1
2018-Apr-22 05:00N 35°29' E 139°54'0 0.0
2018-Apr-22 04:30N 35°29' E 139°54'0 0.0
2018-Apr-22 04:00N 35°29' E 139°54'0 0.0
2018-Apr-22 03:28N 35°29' E 139°54'0 0.1
2018-Apr-22 03:00N 35°29' E 139°54'5 9.2
2018-Apr-22 02:30N 35°30' E 139°48'2 4.0
2018-Apr-22 01:59N 35°31' E 139°46'0 0.0
2018-Apr-22 01:30N 35°31' E 139°46'0 0.0
2018-Apr-22 01:00N 35°31' E 139°46'0 0.0
2018-Apr-22 00:30N 35°31' E 139°46'0 0.0
2018-Apr-22 00:00N 35°31' E 139°46'0 0.0
2018-Apr-21 23:30N 35°31' E 139°46'0 0.0
2018-Apr-21 23:00N 35°31' E 139°46'0 0.0
2018-Apr-21 22:30N 35°31' E 139°46'0 0.0
2018-Apr-21 22:00N 35°31' E 139°46'1 2.2
2018-Apr-21 21:30N 35°30' E 139°47'2 4.7
2018-Apr-21 21:00N 35°29' E 139°49'0 0.0
2018-Apr-21 20:26N 35°29' E 139°49'0 0.0
2018-Apr-21 20:00N 35°29' E 139°49'0 0.0
2018-Apr-21 19:30N 35°29' E 139°49'0 0.0
2018-Apr-21 19:00N 35°29' E 139°49'0 0.0
2018-Apr-21 18:30N 35°29' E 139°49'0 0.0
2018-Apr-21 18:00N 35°29' E 139°49'0 0.0
2018-Apr-21 17:30N 35°29' E 139°49'0 0.1
2018-Apr-21 17:00N 35°29' E 139°49'0 0.0
2018-Apr-21 16:30N 35°29' E 139°49'0 0.0
2018-Apr-21 16:00N 35°29' E 139°49'0 0.1
2018-Apr-21 15:30N 35°29' E 139°49'0 0.0
2018-Apr-21 15:00N 35°29' E 139°49'0 0.1
2018-Apr-21 14:30N 35°29' E 139°49'0 0.0
2018-Apr-21 14:00N 35°29' E 139°49'0 0.0
2018-Apr-21 13:30N 35°29' E 139°49'0 0.0
2018-Apr-21 13:00N 35°29' E 139°49'0 0.0
2018-Apr-21 12:30N 35°29' E 139°49'0 0.0
2018-Apr-21 12:00N 35°29' E 139°49'0 0.0
2018-Apr-21 11:30N 35°29' E 139°49'0 0.0
2018-Apr-21 11:00N 35°29' E 139°49'0 0.0
2018-Apr-21 10:30N 35°29' E 139°49'0 0.0
2018-Apr-21 10:00N 35°29' E 139°49'0 0.0
2018-Apr-21 09:30N 35°29' E 139°49'0 0.0
2018-Apr-21 09:00N 35°29' E 139°49'0 0.1
2018-Apr-21 08:30N 35°29' E 139°49'611.2
2018-Apr-21 08:00N 35°24' E 139°46'612.3
2018-Apr-21 07:30N 35°18' E 139°45'612.3
2018-Apr-21 07:01N 35°12' E 139°47'611.5
2018-Apr-21 06:30N 35°07' E 139°44'612.8
2018-Apr-21 06:00N 35°02' E 139°38'713.2
2018-Apr-21 05:30N 34°58' E 139°32'714.1
2018-Apr-21 05:00N 34°54' E 139°25'1014.8
2018-Apr-21 04:18N 34°48' E 139°14'414.4
2018-Apr-21 04:00N 34°45' E 139°10'814.2
2018-Apr-21 03:27N 34°40' E 139°03'713.9
2018-Apr-21 02:58N 34°36' E 138°57'11112.2
2018-Apr-20 17:53N 34°05' E 136°48'90 8.8
2018-Apr-20 07:43N 34°02' E 135°00'312.7
2018-Apr-20 07:30N 34°05' E 134°60'613.0
2018-Apr-20 07:00N 34°11' E 134°59'715.0
2018-Apr-20 06:30N 34°18' E 134°59'612.7
2018-Apr-20 06:00N 34°24' E 135°04'713.5
2018-Apr-20 05:30N 34°27' E 135°10'612.7
2018-Apr-20 05:00N 34°31' E 135°17'612.0
2018-Apr-20 04:30N 34°33' E 135°23'2 4.8
2018-Apr-20 04:00N 34°33' E 135°26'0 0.0
2018-Apr-20 03:30N 34°33' E 135°26'0 0.0
2018-Apr-20 03:00N 34°33' E 135°26'0 0.0
2018-Apr-20 02:30N 34°33' E 135°26'0 0.0
2018-Apr-20 02:00N 34°33' E 135°26'0 0.0
2018-Apr-20 01:30N 34°33' E 135°26'0 0.0
2018-Apr-20 01:00N 34°33' E 135°26'0 0.0
2018-Apr-20 00:30N 34°33' E 135°26'0 0.0
2018-Apr-20 00:00N 34°33' E 135°26'0 0.3
2018-Apr-19 23:30N 34°33' E 135°26'0 0.5
2018-Apr-19 23:00N 34°33' E 135°26'4 8.8
2018-Apr-19 22:30N 34°33' E 135°21'2 4.0
2018-Apr-19 21:58N 34°33' E 135°18'0 0.0
2018-Apr-19 21:28N 34°33' E 135°18'0 0.0
2018-Apr-19 20:58N 34°33' E 135°18'0 0.1
2018-Apr-19 20:30N 34°33' E 135°18'0 0.0
2018-Apr-19 20:00N 34°33' E 135°18'0 0.0
2018-Apr-19 19:30N 34°33' E 135°18'0 0.0
2018-Apr-19 19:00N 34°33' E 135°18'0 0.0
2018-Apr-19 18:30N 34°33' E 135°18'0 0.0
2018-Apr-19 18:00N 34°33' E 135°18'0 0.0
2018-Apr-19 17:30N 34°33' E 135°18'0 0.0
2018-Apr-19 17:00N 34°33' E 135°18'0 0.0
2018-Apr-19 16:30N 34°33' E 135°18'0 0.0
2018-Apr-19 16:00N 34°33' E 135°18'1 1.1
2018-Apr-19 15:30N 34°33' E 135°18'612.5
2018-Apr-19 15:00N 34°34' E 135°10'612.1
2018-Apr-19 14:30N 34°36' E 135°03'4 9.0
2018-Apr-19 14:00N 34°36' E 134°58'510.0
2018-Apr-19 13:30N 34°35' E 134°52'510.0
2018-Apr-19 13:00N 34°32' E 134°47'611.5
2018-Apr-19 12:30N 34°30' E 134°40'612.5
2018-Apr-19 12:00N 34°28' E 134°33'612.3
2018-Apr-19 11:30N 34°25' E 134°26'612.2
2018-Apr-19 11:00N 34°23' E 134°20'611.7
2018-Apr-19 10:28N 34°24' E 134°12'711.6
2018-Apr-19 09:52N 34°26' E 134°04'1 0.0
2018-Apr-18 14:04N 34°27' E 134°05'413.6
2018-Apr-18 13:48N 34°26' E 134°09'513.7
2018-Apr-18 13:28N 34°24' E 134°14'713.0
2018-Apr-18 12:57N 34°22' E 134°22'612.6
2018-Apr-18 12:30N 34°19' E 134°28'612.8
2018-Apr-18 12:00N 34°17' E 134°35'612.8
2018-Apr-18 11:30N 34°12' E 134°41'612.8
2018-Apr-18 11:00N 34°09' E 134°47'612.6
2018-Apr-18 10:30N 34°08' E 134°55'612.3
2018-Apr-18 10:00N 34°08' E 135°02'4 0.8
2018-Apr-18 04:08N 34°07' E 135°08'0 2.4
2018-Apr-18 04:00N 34°07' E 135°08'0 0.3
2018-Apr-18 03:30N 34°07' E 135°08'0 0.0
2018-Apr-18 03:00N 34°07' E 135°08'0 0.0
2018-Apr-18 02:30N 34°07' E 135°08'0 0.0
2018-Apr-18 02:00N 34°07' E 135°08'0 0.0
2018-Apr-18 01:30N 34°07' E 135°08'0 0.1
2018-Apr-18 01:00N 34°07' E 135°08'0 0.0
2018-Apr-18 00:30N 34°07' E 135°08'0 0.0
2018-Apr-18 00:00N 34°07' E 135°08'1 2.7
2018-Apr-17 23:30N 34°08' E 135°06'510.9
2018-Apr-17 23:00N 34°03' E 135°03'611.9
2018-Apr-17 22:30N 33°57' E 135°02'611.6
2018-Apr-17 22:00N 33°51' E 135°04'84 9.7
2018-Apr-17 13:23N 34°05' E 136°43'36 9.1
2018-Apr-17 09:24N 34°41' E 136°48'511.7
2018-Apr-17 09:00N 34°45' E 136°46'612.2
2018-Apr-17 08:30N 34°51' E 136°43'612.2
2018-Apr-17 08:00N 34°56' E 136°41'1 3.0
2018-Apr-17 07:30N 34°57' E 136°39'0 0.0
2018-Apr-17 07:01N 34°57' E 136°39'1 2.2
2018-Apr-17 06:31N 34°58' E 136°40'0 0.1
2018-Apr-17 06:01N 34°58' E 136°40'0 0.0
2018-Apr-17 05:31N 34°58' E 136°40'0 0.0
2018-Apr-17 05:01N 34°58' E 136°40'0 0.0
2018-Apr-17 04:07N 34°58' E 136°40'0 0.0
2018-Apr-17 04:00N 34°58' E 136°40'0 0.0
2018-Apr-17 03:30N 34°58' E 136°40'0 0.0
2018-Apr-17 03:00N 34°58' E 136°40'0 0.0
2018-Apr-17 02:30N 34°58' E 136°40'0 0.0
2018-Apr-17 01:58N 34°58' E 136°40'0 0.0
2018-Apr-17 01:30N 34°58' E 136°40'0 0.0
2018-Apr-17 01:00N 34°58' E 136°40'0 0.0
2018-Apr-17 00:30N 34°58' E 136°40'0 0.0
2018-Apr-17 00:00N 34°58' E 136°40'2 3.2
2018-Apr-16 23:31N 34°58' E 136°42'0 0.3
2018-Apr-16 23:00N 34°57' E 136°42'510.8
2018-Apr-16 22:30N 34°52' E 136°42'612.3
2018-Apr-16 22:00N 34°47' E 136°46'712.2
2018-Apr-16 21:25N 34°41' E 136°51'101 8.0
2018-Apr-16 08:45N 33°54' E 135°02'312.4
2018-Apr-16 08:30N 33°57' E 135°02'612.5
2018-Apr-16 08:00N 34°03' E 135°03'510.8
2018-Apr-16 07:30N 34°07' E 135°07'1 0.1
2018-Apr-15 22:24N 34°07' E 135°08'0 0.1
2018-Apr-15 22:00N 34°07' E 135°08'1 0.5
2018-Apr-15 21:00N 34°07' E 135°08'0 0.0
2018-Apr-15 19:48N 34°07' E 135°08'0 0.0
2018-Apr-15 19:28N 34°07' E 135°08'0 0.9
2018-Apr-15 19:00N 34°08' E 135°07'611.2
2018-Apr-15 18:30N 34°09' E 135°01'611.9
2018-Apr-15 18:00N 34°08' E 134°54'612.3
2018-Apr-15 17:30N 34°09' E 134°46'713.6
2018-Apr-15 17:00N 34°13' E 134°40'612.4
2018-Apr-15 16:30N 34°17' E 134°34'713.3
2018-Apr-15 16:01N 34°20' E 134°27'1313.6
2018-Apr-15 15:05N 34°24' E 134°13'114.6
2018-Apr-15 15:00N 34°25' E 134°11'  
Track history (hours):
 
Tides and Currents Weather Stations Pressure Air Temp Water Temp Dewpoint Dewpoint Depression Visibility Wind Speed Wind Dir Waves Ship Positions

23kousinmaru

Last reported at 2018-Apr-25 11:06 UTC. Time now 2018-Apr-26 03:31 UTC.
Position N 34°25' E 134°12'.

Length 68 m; draft 4.5 m.

Type: Tanker. MMSI: 431501853.

Date/timePositionNaut miles runAvg speedWind from/ knotsBaromVisibWave heightAir tempDewpointWater temp
2018-Apr-25 11:06N 34°25' E 134°12'611.6
2018-Apr-25 10:36N 34°24' E 134°19'111.7
2018-Apr-25 10:29N 34°24' E 134°20'611.7
2018-Apr-25 10:00N 34°21' E 134°26'611.7
2018-Apr-25 09:30N 34°18' E 134°32'611.9
2018-Apr-25 09:00N 34°15' E 134°39'612.1
2018-Apr-25 08:29N 34°10' E 134°44'611.5
2018-Apr-25 08:00N 34°08' E 134°50'612.1
2018-Apr-25 07:30N 34°08' E 134°57'612.1
2018-Apr-25 06:59N 34°08' E 135°04'3 0.4
2018-Apr-25 00:10N 34°07' E 135°08'0 0.8
2018-Apr-24 23:55N 34°07' E 135°08'0 1.1
2018-Apr-24 23:30N 34°07' E 135°07'510.1
2018-Apr-24 23:00N 34°03' E 135°04'611.2
2018-Apr-24 22:30N 33°58' E 135°02'611.0
2018-Apr-24 21:57N 33°52' E 135°03'610.1
2018-Apr-24 21:23N 33°47' E 135°07'100 7.5
2018-Apr-24 07:54N 34°42' E 136°49'511.8
2018-Apr-24 07:30N 34°46' E 136°46'611.9
2018-Apr-24 07:01N 34°52' E 136°43'611.6
2018-Apr-24 06:30N 34°57' E 136°40'1 2.3
2018-Apr-24 06:00N 34°57' E 136°38'0 0.0
2018-Apr-24 05:31N 34°57' E 136°38'0 0.0
2018-Apr-24 05:01N 34°57' E 136°38'0 0.0
2018-Apr-24 04:30N 34°57' E 136°38'0 0.0
2018-Apr-24 04:01N 34°57' E 136°38'0 0.0
2018-Apr-24 03:30N 34°57' E 136°38'0 0.0
2018-Apr-24 03:00N 34°57' E 136°38'0 0.0
2018-Apr-24 02:30N 34°57' E 136°38'0 0.0
2018-Apr-24 02:00N 34°57' E 136°38'0 0.0
2018-Apr-24 01:30N 34°57' E 136°38'0 0.0
2018-Apr-24 01:00N 34°57' E 136°38'0 0.0
2018-Apr-24 00:30N 34°57' E 136°38'0 0.0
2018-Apr-24 00:00N 34°57' E 136°38'0 0.0
2018-Apr-23 23:31N 34°57' E 136°38'2 3.6
2018-Apr-23 23:01N 34°57' E 136°41'1 1.0
2018-Apr-23 22:30N 34°57' E 136°41'0 0.0
2018-Apr-23 22:00N 34°57' E 136°41'0 0.0
2018-Apr-23 21:27N 34°57' E 136°41'0 0.0
2018-Apr-23 21:00N 34°57' E 136°41'0 1.0
2018-Apr-23 20:30N 34°57' E 136°41'611.8
2018-Apr-23 20:00N 34°51' E 136°43'612.5
2018-Apr-23 19:30N 34°46' E 136°47'7111.7
2018-Apr-23 13:26N 34°33' E 138°11'612.9
2018-Apr-23 12:59N 34°33' E 138°18'712.5
2018-Apr-23 12:27N 34°34' E 138°26'612.4
2018-Apr-23 12:00N 34°34' E 138°33'612.2
2018-Apr-23 11:29N 34°34' E 138°41'611.8
2018-Apr-23 10:56N 34°35' E 138°49'510.8
2018-Apr-23 10:29N 34°36' E 138°54'711.4
2018-Apr-23 09:50N 34°40' E 139°01'812.6
2018-Apr-23 09:14N 34°47' E 139°06'312.8
2018-Apr-23 08:58N 34°50' E 139°08'712.6
2018-Apr-23 08:24N 34°56' E 139°13'512.0
2018-Apr-23 08:00N 34°58' E 139°18'511.1
2018-Apr-23 07:30N 35°00' E 139°24'612.6
2018-Apr-23 07:00N 35°03' E 139°31'712.6
2018-Apr-23 06:28N 35°06' E 139°39'612.1
2018-Apr-23 06:00N 35°10' E 139°44'612.8
2018-Apr-23 05:30N 35°16' E 139°46'612.6
2018-Apr-23 05:00N 35°21' E 139°42'612.2
2018-Apr-23 04:30N 35°27' E 139°45'4 7.3
2018-Apr-23 04:00N 35°30' E 139°45'0 0.7
2018-Apr-23 03:30N 35°30' E 139°45'0 0.0
2018-Apr-23 03:00N 35°30' E 139°45'0 0.0
2018-Apr-23 02:30N 35°30' E 139°45'0 0.0
2018-Apr-23 02:00N 35°30' E 139°45'0 0.0
2018-Apr-23 01:30N 35°30' E 139°45'0 0.0
2018-Apr-23 01:00N 35°30' E 139°45'0 0.0
2018-Apr-23 00:30N 35°30' E 139°45'0 0.0
2018-Apr-23 00:00N 35°30' E 139°45'0 0.0
2018-Apr-22 23:30N 35°30' E 139°45'0 0.0
2018-Apr-22 23:00N 35°30' E 139°45'1 2.0
2018-Apr-22 22:30N 35°30' E 139°46'611.8
2018-Apr-22 22:00N 35°29' E 139°53'1 0.1
2018-Apr-22 17:14N 35°29' E 139°54'0 0.0
2018-Apr-22 16:40N 35°29' E 139°54'0 0.0
2018-Apr-22 16:30N 35°29' E 139°54'0 0.1
2018-Apr-22 16:00N 35°29' E 139°54'0 0.0
2018-Apr-22 15:30N 35°29' E 139°54'0 0.0
2018-Apr-22 15:00N 35°29' E 139°54'0 0.0
2018-Apr-22 14:30N 35°29' E 139°54'0 0.0
2018-Apr-22 14:00N 35°29' E 139°54'0 0.0
2018-Apr-22 13:30N 35°29' E 139°54'0 0.0
2018-Apr-22 13:00N 35°29' E 139°54'0 0.0
2018-Apr-22 12:30N 35°29' E 139°54'0 0.0
2018-Apr-22 12:00N 35°29' E 139°54'0 0.0
2018-Apr-22 11:29N 35°29' E 139°54'0 0.0
2018-Apr-22 11:00N 35°29' E 139°54'0 0.0
2018-Apr-22 10:30N 35°29' E 139°54'0 0.1
2018-Apr-22 10:00N 35°29' E 139°54'0 0.0
2018-Apr-22 09:30N 35°29' E 139°54'0 0.0
2018-Apr-22 09:00N 35°29' E 139°54'0 0.0
2018-Apr-22 08:30N 35°29' E 139°54'0 0.0
2018-Apr-22 07:58N 35°29' E 139°54'0 0.0
2018-Apr-22 07:28N 35°29' E 139°54'0 0.0
2018-Apr-22 06:58N 35°29' E 139°54'0 0.0
2018-Apr-22 06:29N 35°29' E 139°54'0 0.0
2018-Apr-22 06:00N 35°29' E 139°54'0 0.0
2018-Apr-22 05:30N 35°29' E 139°54'0 0.1
2018-Apr-22 05:00N 35°29' E 139°54'0 0.0
2018-Apr-22 04:30N 35°29' E 139°54'0 0.0
2018-Apr-22 04:00N 35°29' E 139°54'0 0.0
2018-Apr-22 03:28N 35°29' E 139°54'0 0.1
2018-Apr-22 03:00N 35°29' E 139°54'5 9.2
2018-Apr-22 02:30N 35°30' E 139°48'2 4.0
2018-Apr-22 01:59N 35°31' E 139°46'0 0.0
2018-Apr-22 01:30N 35°31' E 139°46'0 0.0
2018-Apr-22 01:00N 35°31' E 139°46'0 0.0
2018-Apr-22 00:30N 35°31' E 139°46'0 0.0
2018-Apr-22 00:00N 35°31' E 139°46'0 0.0
2018-Apr-21 23:30N 35°31' E 139°46'0 0.0
2018-Apr-21 23:00N 35°31' E 139°46'0 0.0
2018-Apr-21 22:30N 35°31' E 139°46'0 0.0
2018-Apr-21 22:00N 35°31' E 139°46'1 2.2
2018-Apr-21 21:30N 35°30' E 139°47'2 4.7
2018-Apr-21 21:00N 35°29' E 139°49'0 0.0
2018-Apr-21 20:26N 35°29' E 139°49'0 0.0
2018-Apr-21 20:00N 35°29' E 139°49'0 0.0
2018-Apr-21 19:30N 35°29' E 139°49'0 0.0
2018-Apr-21 19:00N 35°29' E 139°49'0 0.0
2018-Apr-21 18:30N 35°29' E 139°49'0 0.0
2018-Apr-21 18:00N 35°29' E 139°49'0 0.0
2018-Apr-21 17:30N 35°29' E 139°49'0 0.1
2018-Apr-21 17:00N 35°29' E 139°49'0 0.0
2018-Apr-21 16:30N 35°29' E 139°49'0 0.0
2018-Apr-21 16:00N 35°29' E 139°49'0 0.1
2018-Apr-21 15:30N 35°29' E 139°49'0 0.0
2018-Apr-21 15:00N 35°29' E 139°49'0 0.1
2018-Apr-21 14:30N 35°29' E 139°49'0 0.0
2018-Apr-21 14:00N 35°29' E 139°49'0 0.0
2018-Apr-21 13:30N 35°29' E 139°49'0 0.0
2018-Apr-21 13:00N 35°29' E 139°49'0 0.0
2018-Apr-21 12:30N 35°29' E 139°49'0 0.0
2018-Apr-21 12:00N 35°29' E 139°49'0 0.0
2018-Apr-21 11:30N 35°29' E 139°49'0 0.0
2018-Apr-21 11:00N 35°29' E 139°49'0 0.0
2018-Apr-21 10:30N 35°29' E 139°49'0 0.0
2018-Apr-21 10:00N 35°29' E 139°49'0 0.0
2018-Apr-21 09:30N 35°29' E 139°49'0 0.0
2018-Apr-21 09:00N 35°29' E 139°49'0 0.1
2018-Apr-21 08:30N 35°29' E 139°49'611.2
2018-Apr-21 08:00N 35°24' E 139°46'612.3
2018-Apr-21 07:30N 35°18' E 139°45'612.3
2018-Apr-21 07:01N 35°12' E 139°47'611.5
2018-Apr-21 06:30N 35°07' E 139°44'612.8
2018-Apr-21 06:00N 35°02' E 139°38'713.2
2018-Apr-21 05:30N 34°58' E 139°32'714.1
2018-Apr-21 05:00N 34°54' E 139°25'1014.8
2018-Apr-21 04:18N 34°48' E 139°14'414.4
2018-Apr-21 04:00N 34°45' E 139°10'814.2
2018-Apr-21 03:27N 34°40' E 139°03'713.9
2018-Apr-21 02:58N 34°36' E 138°57'11112.2
2018-Apr-20 17:53N 34°05' E 136°48'90 8.8
2018-Apr-20 07:43N 34°02' E 135°00'312.7
2018-Apr-20 07:30N 34°05' E 134°60'613.0
2018-Apr-20 07:00N 34°11' E 134°59'715.0
2018-Apr-20 06:30N 34°18' E 134°59'612.7
2018-Apr-20 06:00N 34°24' E 135°04'713.5
2018-Apr-20 05:30N 34°27' E 135°10'612.7
2018-Apr-20 05:00N 34°31' E 135°17'612.0
2018-Apr-20 04:30N 34°33' E 135°23'2 4.8
2018-Apr-20 04:00N 34°33' E 135°26'0 0.0
2018-Apr-20 03:30N 34°33' E 135°26'0 0.0
2018-Apr-20 03:00N 34°33' E 135°26'0 0.0
2018-Apr-20 02:30N 34°33' E 135°26'0 0.0
2018-Apr-20 02:00N 34°33' E 135°26'0 0.0
2018-Apr-20 01:30N 34°33' E 135°26'0 0.0
2018-Apr-20 01:00N 34°33' E 135°26'0 0.0
2018-Apr-20 00:30N 34°33' E 135°26'0 0.0
2018-Apr-20 00:00N 34°33' E 135°26'0 0.3
2018-Apr-19 23:30N 34°33' E 135°26'0 0.5
2018-Apr-19 23:00N 34°33' E 135°26'4 8.8
2018-Apr-19 22:30N 34°33' E 135°21'2 4.0
2018-Apr-19 21:58N 34°33' E 135°18'0 0.0
2018-Apr-19 21:28N 34°33' E 135°18'0 0.0
2018-Apr-19 20:58N 34°33' E 135°18'0 0.1
2018-Apr-19 20:30N 34°33' E 135°18'0 0.0
2018-Apr-19 20:00N 34°33' E 135°18'0 0.0
2018-Apr-19 19:30N 34°33' E 135°18'0 0.0
2018-Apr-19 19:00N 34°33' E 135°18'0 0.0
2018-Apr-19 18:30N 34°33' E 135°18'0 0.0
2018-Apr-19 18:00N 34°33' E 135°18'0 0.0
2018-Apr-19 17:30N 34°33' E 135°18'0 0.0
2018-Apr-19 17:00N 34°33' E 135°18'0 0.0
2018-Apr-19 16:30N 34°33' E 135°18'0 0.0
2018-Apr-19 16:00N 34°33' E 135°18'1 1.1
2018-Apr-19 15:30N 34°33' E 135°18'612.5
2018-Apr-19 15:00N 34°34' E 135°10'612.1
2018-Apr-19 14:30N 34°36' E 135°03'4 9.0
2018-Apr-19 14:00N 34°36' E 134°58'510.0
2018-Apr-19 13:30N 34°35' E 134°52'510.0
2018-Apr-19 13:00N 34°32' E 134°47'611.5
2018-Apr-19 12:30N 34°30' E 134°40'612.5
2018-Apr-19 12:00N 34°28' E 134°33'612.3
2018-Apr-19 11:30N 34°25' E 134°26'612.2
2018-Apr-19 11:00N 34°23' E 134°20'611.7
2018-Apr-19 10:28N 34°24' E 134°12'711.6
2018-Apr-19 09:52N 34°26' E 134°04'1 0.0
2018-Apr-18 14:04N 34°27' E 134°05'413.6
2018-Apr-18 13:48N 34°26' E 134°09'513.7
2018-Apr-18 13:28N 34°24' E 134°14'713.0
2018-Apr-18 12:57N 34°22' E 134°22'612.6
2018-Apr-18 12:30N 34°19' E 134°28'612.8
2018-Apr-18 12:00N 34°17' E 134°35'612.8
2018-Apr-18 11:30N 34°12' E 134°41'612.8
2018-Apr-18 11:00N 34°09' E 134°47'612.6
2018-Apr-18 10:30N 34°08' E 134°55'612.3
2018-Apr-18 10:00N 34°08' E 135°02'4 0.8
2018-Apr-18 04:08N 34°07' E 135°08'0 2.4
2018-Apr-18 04:00N 34°07' E 135°08'0 0.3
2018-Apr-18 03:30N 34°07' E 135°08'0 0.0
2018-Apr-18 03:00N 34°07' E 135°08'0 0.0
2018-Apr-18 02:30N 34°07' E 135°08'0 0.0
2018-Apr-18 02:00N 34°07' E 135°08'0 0.0
2018-Apr-18 01:30N 34°07' E 135°08'0 0.1
2018-Apr-18 01:00N 34°07' E 135°08'0 0.0
2018-Apr-18 00:30N 34°07' E 135°08'0 0.0
2018-Apr-18 00:00N 34°07' E 135°08'1 2.7
2018-Apr-17 23:30N 34°08' E 135°06'510.9
2018-Apr-17 23:00N 34°03' E 135°03'611.9
2018-Apr-17 22:30N 33°57' E 135°02'611.6
2018-Apr-17 22:00N 33°51' E 135°04'84 9.7
2018-Apr-17 13:23N 34°05' E 136°43'36 9.1
2018-Apr-17 09:24N 34°41' E 136°48'511.7
2018-Apr-17 09:00N 34°45' E 136°46'612.2
2018-Apr-17 08:30N 34°51' E 136°43'612.2
2018-Apr-17 08:00N 34°56' E 136°41'1 3.0
2018-Apr-17 07:30N 34°57' E 136°39'0 0.0
2018-Apr-17 07:01N 34°57' E 136°39'1 2.2
2018-Apr-17 06:31N 34°58' E 136°40'0 0.1
2018-Apr-17 06:01N 34°58' E 136°40'0 0.0
2018-Apr-17 05:31N 34°58' E 136°40'0 0.0
2018-Apr-17 05:01N 34°58' E 136°40'0 0.0
2018-Apr-17 04:07N 34°58' E 136°40'0 0.0
2018-Apr-17 04:00N 34°58' E 136°40'0 0.0
2018-Apr-17 03:30N 34°58' E 136°40'0 0.0
2018-Apr-17 03:00N 34°58' E 136°40'0 0.0
2018-Apr-17 02:30N 34°58' E 136°40'0 0.0
2018-Apr-17 01:58N 34°58' E 136°40'0 0.0
2018-Apr-17 01:30N 34°58' E 136°40'0 0.0
2018-Apr-17 01:00N 34°58' E 136°40'0 0.0
2018-Apr-17 00:30N 34°58' E 136°40'0 0.0
2018-Apr-17 00:00N 34°58' E 136°40'2 3.2
2018-Apr-16 23:31N 34°58' E 136°42'0 0.3
2018-Apr-16 23:00N 34°57' E 136°42'510.8
2018-Apr-16 22:30N 34°52' E 136°42'612.3
2018-Apr-16 22:00N 34°47' E 136°46'712.2
2018-Apr-16 21:25N 34°41' E 136°51'101 8.0
2018-Apr-16 08:45N 33°54' E 135°02'312.4
2018-Apr-16 08:30N 33°57' E 135°02'612.5
2018-Apr-16 08:00N 34°03' E 135°03'510.8
2018-Apr-16 07:30N 34°07' E 135°07'1 0.1
2018-Apr-15 22:24N 34°07' E 135°08'0 0.1
2018-Apr-15 22:00N 34°07' E 135°08'1 0.5
2018-Apr-15 21:00N 34°07' E 135°08'0 0.0
2018-Apr-15 19:48N 34°07' E 135°08'0 0.0
2018-Apr-15 19:28N 34°07' E 135°08'0 0.9
2018-Apr-15 19:00N 34°08' E 135°07'611.2
2018-Apr-15 18:30N 34°09' E 135°01'611.9
2018-Apr-15 18:00N 34°08' E 134°54'612.3
2018-Apr-15 17:30N 34°09' E 134°46'713.6
2018-Apr-15 17:00N 34°13' E 134°40'612.4
2018-Apr-15 16:30N 34°17' E 134°34'713.3
2018-Apr-15 16:01N 34°20' E 134°27'1313.6
2018-Apr-15 15:05N 34°24' E 134°13'114.6
2018-Apr-15 15:00N 34°25' E 134°11'  

Dump ship's entire track history